Weather observations for the past three days for
Brooks Field Airport
Imperial (Metric)
Date Time (edt) Wind (mph) Vis. (mi.) Weather Sky Cond. Temperature (ºF) Relative Humidity Wind Chill (°F) Heat Index (°F) Pressure Precipitation (in)
Air Dwpt 6 hour altimeter (in) sea level (mb) 1 hr 3 hr 6 hr
Max. Min.
05 01:15 S 8 10.00 Mostly Cloudy SCT075 BKN085 BKN110 57.2 52.3 84% 29.54 0.0
05 00:55 S 9 10.00 Partly Cloudy SCT095 57.4 52.3 83% 29.55 0.0
05 00:35 SW 6 10.00 Partly Cloudy SCT100 SCT120 57.6 52.3 83% 29.54 0.0
05 00:15 S 5 10.00 Mostly Cloudy BKN110 57 52.7 86% 29.54 0.0
04 23:55 S 3 10.00 Partly Cloudy SCT110 57.2 52.7 85% 29.54 0.0 0.01
04 23:35 S 10 G 16 10.00 Overcast SCT080 BKN100 OVC120 57.4 54.1 89% 29.54 0.0 0.01
04 23:15 SE 7 10.00 Light Rain SCT048 BKN080 OVC090 58.1 53.4 85% 29.54 0.0 0.01
04 22:35 SW 16 G 26 10.00 Light Rain SCT090 BKN120 64.4 52.9 66% 29.57 0.0
04 22:15 SW 12 G 18 10.00 Partly Cloudy SCT120 65.5 53.2 65% 29.55 0.0
04 21:55 S 7 10.00 Partly Cloudy SCT110 64.6 54.1 69% 29.54 0.0
04 21:35 S 5 10.00 Mostly Cloudy SCT050 SCT080 BKN110 63 55.4 76% 29.53 0.0
04 21:15 SW 16 G 22 10.00 Light Rain SCT095 SCT120 66.2 53.8 64% 29.53 0.0
04 20:55 SW 13 G 18 10.00 Partly Cloudy SCT070 SCT080 67.5 51.6 57% 29.52 0.0
04 20:35 SW 9 G 18 10.00 Light Rain SCT055 BKN070 BKN080 67.3 52.3 59% 29.52 0.0
04 20:15 SW 13 G 21 10.00 Mostly Cloudy BKN075 BKN090 BKN110 68 51.8 56% 29.52 0.0
04 19:55 SW 8 10.00 Mostly Cloudy SCT075 BKN090 BKN110 68.5 51.4 75.7 68.2 55% 29.52 0.0
04 19:35 SW 6 G 16 10.00 Partly Cloudy SCT075 SCT090 68.5 51.1 54% 29.51 0.0
04 19:15 SW 12 G 18 10.00 Mostly Cloudy SCT075 BKN090 BKN110 68.2 52 56% 29.51 0.0
04 18:55 SW 17 G 29 10.00 Overcast BKN075 OVC090 69.1 51.1 53% 29.52 0.0
04 18:35 SW 15 G 30 10.00 Mostly Cloudy BKN075 BKN090 BKN120 73.2 48.2 41% 29.51 0.0
04 18:15 SW 16 G 21 10.00 Mostly Cloudy SCT075 SCT100 BKN120 75.6 48.2 38% 78 29.5 0.0
04 17:55 W 16 G 22 10.00 Mostly Cloudy SCT065 SCT085 BKN110 75 48.9 40% 77 29.5 0.0
04 17:35 SW 15 G 22 10.00 Mostly Cloudy SCT065 BKN085 BKN110 73.9 48.9 41% 29.51 0.0
04 17:15 SW 15 G 23 10.00 Mostly Cloudy BKN070 BKN080 BKN110 73.8 48.7 41% 29.52 0.0
04 16:55 SW 8 G 22 10.00 Mostly Cloudy SCT060 BKN070 73 48.6 42% 29.53 0.0
04 16:35 SW 16 G 21 10.00 Mostly Cloudy SCT060 BKN070 BKN080 74.5 50.4 43% 29.54 0.0
04 16:15 SW 14 G 24 10.00 Mostly Cloudy SCT060 BKN080 73 49.1 43% 29.54 0.0
04 15:55 SW 7 G 29 10.00 Mostly Cloudy SCT070 BKN080 BKN090 72.9 47.1 40% 29.55 0.0
04 15:35 SW 16 G 25 10.00 Mostly Cloudy SCT070 BKN080 72.7 45.7 38% 29.56 0.0
04 15:15 SW 10 G 24 10.00 Partly Cloudy SCT070 73.9 45.3 36% 29.56 0.0
04 14:55 SW 17 G 24 10.00 Partly Cloudy SCT070 73.2 43.2 34% 29.57 0.0
04 14:35 SW 16 G 23 10.00 Fair CLR 73.6 41.7 32% 29.57 0.0
04 14:15 SW 16 G 26 10.00 Fair CLR 73.4 39.9 30% 29.58 0.0
04 13:55 SW 13 G 22 10.00 Fair CLR 72.5 40.3 73.2 50.9 31% 29.59 0.0
04 13:35 SW 14 G 25 10.00 Fair CLR 72.9 39.7 30% 29.59 0.0
04 13:15 SW 15 G 22 10.00 Fair CLR 72.7 38.7 29% 29.6 0.0
04 12:55 SW 14 G 21 10.00 Fair CLR 71.6 40.5 32% 29.61 0.0
04 12:35 S 10 G 18 10.00 Fair CLR 70.9 41.7 35% 29.62 0.0
04 12:15 SW 10 G 17 10.00 Fair CLR 69.8 42.4 37% 29.63 0.0
04 11:55 S 12 10.00 Fair CLR 68.7 43.2 40% 29.63 0.0
04 11:35 SW 10 G 16 10.00 Fair CLR 67.6 43.7 42% 29.64 0.0
04 11:15 SW 12 G 16 10.00 Fair CLR 66.4 44.4 45% 29.65 0.0
04 10:55 SW 10 10.00 Fair CLR 64.9 45.3 49% 29.65 0.0
04 10:35 SW 6 10.00 Fair CLR 63.5 45.1 51% 29.65 0.0
04 10:15 SW 7 10.00 Fair CLR 61.3 44.8 55% 29.66 0.0
04 09:55 SW 7 10.00 Fair CLR 59.2 44.4 58% 29.66 0.0
04 09:35 SW 8 10.00 Fair CLR 57.9 44.6 61% 29.67 0.0
04 09:15 SW 8 10.00 Fair CLR 56.1 44.1 64% 29.67 0.0
04 08:55 SW 8 10.00 Fair CLR 54.3 43.5 67% 29.68 0.0
04 08:35 SW 10 10.00 Fair CLR 52.9 43 69% 29.68 0.0
04 08:15 SW 10 10.00 Fair CLR 51.8 42.3 70% 29.68 0.0
04 07:55 S 3 10.00 Fair CLR 50.5 41.9 50.5 47.7 72% 29.68 0.0
04 07:35 SW 6 10.00 Fair CLR 49.5 41.7 75% 48 29.68 0.0
04 07:15 SW 5 10.00 Fair CLR 48.4 41 76% 47 29.68 0.0
04 06:55 S 6 10.00 Fair CLR 47.7 41 78% 45 29.67 0.0
04 06:35 S 6 10.00 Fair CLR 48 41 77% 46 29.67 0.0
04 06:15 S 5 10.00 Fair CLR 48 40.8 76% 47 29.67 0.0
04 05:55 S 5 10.00 Fair CLR 48.2 41 76% 47 29.67 0.0
04 05:35 S 5 10.00 Fair CLR 48.2 41 76% 47 29.67 0.0
04 05:15 S 5 10.00 Fair CLR 48.2 40.8 76% 47 29.67 0.0
04 04:55 S 6 10.00 Fair CLR 48.2 40.8 76% 46 29.67 0.0
04 04:35 S 5 10.00 Fair CLR 48.2 40.8 76% 47 29.68 0.0
04 04:15 S 5 10.00 Fair CLR 48.2 40.6 75% 47 29.68 0.0
04 03:55 S 6 10.00 Partly Cloudy SCT070 48.2 40.5 75% 46 29.69 0.0
04 03:35 S 5 10.00 Fair CLR 48.2 40.5 75% 47 29.7 0.0
04 03:15 S 5 10.00 Fair CLR 48 40.3 75% 47 29.71 0.0
04 02:55 S 5 10.00 Fair CLR 47.8 40.1 75% 46 29.71 0.0
04 02:35 S 3 10.00 Fair CLR 47.7 40.1 75% 29.72 0.0
04 02:15 S 5 10.00 Fair CLR 48 39.9 74% 47 29.73 0.0
04 01:55 S 6 10.00 Fair CLR 48 39.7 52.2 48 73% 46 29.74 0.0
04 01:35 S 6 10.00 Fair CLR 48.4 39.6 72% 46 29.74 0.0
04 01:15 S 6 10.00 Fair CLR 48.4 39.6 72% 46 29.75 0.0
04 00:55 S 6 10.00 Fair CLR 48.6 39.4 71% 47 29.75 0.0
04 00:35 S 7 10.00 Fair CLR 48.7 39.2 70% 46 29.76 0.0
04 00:15 S 6 10.00 Fair CLR 48.6 39.2 70% 47 29.76 0.0
03 23:55 S 6 10.00 Fair CLR 48.6 38.8 69% 47 29.77 0.0
03 23:35 S 6 10.00 Fair CLR 48.7 38.8 69% 47 29.77 0.0
03 23:15 S 8 10.00 Fair CLR 49.1 38.8 68% 46 29.77 0.0
03 22:55 S 9 10.00 Partly Cloudy SCT070 49.5 38.8 67% 46 29.77 0.0
03 22:35 S 8 10.00 Mostly Cloudy BKN070 50 38.8 66% 47 29.78 0.0
03 22:15 S 9 G 16 10.00 Mostly Cloudy BKN070 50.2 38.7 65% 29.77 0.0
03 21:55 S 9 10.00 Mostly Cloudy BKN070 50 38.8 66% 47 29.77 0.0
03 21:35 S 9 G 17 10.00 Partly Cloudy SCT070 SCT100 50.2 38.7 65% 29.78 0.0
03 21:15 S 8 10.00 Mostly Cloudy BKN100 50.5 38.5 63% 29.78 0.0
03 20:55 S 10 10.00 Overcast OVC110 51.4 38.1 61% 29.78 0.0
03 20:35 S 10 10.00 Overcast SCT095 OVC110 51.8 37.8 59% 29.79 0.0
03 20:15 S 7 10.00 Overcast OVC095 52.2 37.9 59% 29.79 0.0
03 19:55 S 8 10.00 Overcast OVC095 52.2 38.7 61.9 51.8 60% 29.79 0.0
03 19:35 S 10 10.00 Overcast OVC095 52 39 61% 29.8 0.0
03 19:15 S 7 10.00 Overcast OVC095 51.8 39 62% 29.81 0.0
03 18:55 S 9 G 20 10.00 Overcast OVC085 51.8 38.7 61% 29.82 0.0
03 18:35 S 9 G 17 10.00 Overcast OVC075 51.8 38.5 61% 29.84 0.0
03 18:15 S 12 10.00 Overcast OVC075 52 38.8 61% 29.84 0.0
03 17:55 SW 9 G 18 10.00 Overcast SCT065 OVC075 52.2 37.9 59% 29.85 0.0
03 17:35 SW 17 G 23 10.00 Overcast BKN065 OVC075 53.6 38.3 56% 29.85 0.0
03 17:15 SW 20 G 26 10.00 Overcast SCT055 BKN070 OVC100 54.7 38.3 54% 29.84 0.0
03 16:55 W 22 G 29 10.00 Overcast and Breezy BKN065 OVC100 56.8 37.8 49% 29.84 0.0
03 16:35 SW 14 G 24 10.00 Overcast OVC060 58.1 36 44% 29.84 0.0
03 16:15 SW 16 G 26 10.00 Overcast OVC060 58.5 34.5 41% 29.84 0.0
03 15:55 SW 22 G 31 10.00 Overcast and Breezy OVC060 59.5 33.8 38% 29.84 0.0
03 15:35 SW 18 G 29 10.00 Mostly Cloudy BKN060 60.6 33.4 36% 29.84 0.0
03 15:15 SW 15 G 31 10.00 Mostly Cloudy BKN060 61.2 33.8 36% 29.85 0.0
03 14:55 SW 14 G 25 10.00 Partly Cloudy SCT060 61.5 34.9 37% 29.85 0.0
03 14:35 SW 21 G 30 10.00 Partly Cloudy and Breezy SCT060 SCT085 61 34.2 37% 29.86 0.0
03 14:15 SW 14 G 23 10.00 Partly Cloudy SCT085 60.4 34.5 38% 29.88 0.0
03 13:55 W 17 G 26 10.00 Partly Cloudy SCT100 59.9 33.6 60.6 43 37% 29.88 0.0
03 13:35 SW 16 G 26 10.00 Partly Cloudy SCT085 SCT100 58.3 32.7 38% 29.89 0.0
03 13:15 SW 17 G 23 10.00 Partly Cloudy SCT085 59 35.2 41% 29.9 0.0
03 12:55 SW 18 G 23 10.00 Partly Cloudy SCT100 59.2 34.5 40% 29.91 0.0
03 12:35 SW 16 G 24 10.00 Mostly Cloudy BKN100 56.5 32.5 40% 29.91 0.0
03 12:15 SW 13 G 21 10.00 Overcast OVC085 54.7 32.5 43% 29.92 0.0
03 11:55 SW 14 G 23 10.00 Overcast OVC085 55.6 33.1 43% 29.93 0.0
03 11:35 SW 14 10.00 Overcast BKN085 OVC120 52.9 32.2 45% 29.93 0.0
03 11:15 SW 12 G 16 10.00 Overcast BKN085 OVC110 51.6 32 47% 29.94 0.0
03 10:55 SW 9 10.00 Overcast OVC085 50 31.8 50% 47 29.94 0.0
03 10:35 SW 8 10.00 Overcast OVC085 49.1 32 52% 46 29.94 0.0
03 10:15 SW 10 10.00 Overcast OVC085 48.2 30.7 51% 44 29.95 0.0
03 09:55 SW 12 G 22 10.00 Overcast OVC085 48.4 30.9 51% 44 29.95 0.0
03 09:35 SW 12 10.00 Overcast SCT085 OVC090 48.2 30.4 50% 44 29.95 0.0
03 09:15 SW 9 10.00 Overcast OVC095 46.6 29.7 52% 43 29.95 0.0
03 08:55 SW 10 10.00 Overcast OVC095 46 29.5 53% 42 29.94 0.0
03 08:35 SW 14 10.00 Mostly Cloudy BKN095 46.6 29.7 52% 41 29.95 0.0
03 08:15 SW 7 10.00 Fair CLR 44.2 29.5 56% 41 29.95 0.0
03 07:55 SW 8 G 16 10.00 Fair CLR 42.8 28.6 42.8 36.5 57% 39 29.94 0.0
03 07:35 SW 9 10.00 Fair CLR 41.4 28.4 60% 36 29.94 0.0
03 07:15 SW 7 10.00 Fair CLR 39.7 28.2 63% 35 29.94 0.0
03 06:55 SW 6 10.00 Fair CLR 39.2 27.9 64% 36 29.94 0.0
03 06:35 SW 6 10.00 Fair CLR 38.8 27.9 65% 35 29.94 0.0
03 06:15 SW 6 10.00 Fair CLR 39 27.5 63% 35 29.94 0.0
03 05:55 SW 6 10.00 Fair CLR 38.5 27.5 65% 35 29.94 0.0
03 05:35 SW 5 10.00 Fair CLR 38.3 26.6 63% 35 29.95 0.0
03 05:15 SW 3 10.00 Fair CLR 38.1 26.1 62% 29.95 0.0
03 04:55 SW 6 10.00 Fair CLR 38.7 25.5 59% 35 29.95 0.0
03 04:35 S 6 10.00 Fair CLR 37.9 24.8 59% 34 29.96 0.0
03 04:15 S 3 10.00 Fair CLR 37.9 24.4 58% 29.96 0.0
03 03:55 S 3 10.00 Fair CLR 37.6 24.3 59% 29.96 0.0
03 03:35 S 3 10.00 Partly Cloudy SCT090 37.8 23.7 57% 29.96 0.0
03 03:15 S 3 10.00 Mostly Cloudy BKN090 37.8 23.5 57% 29.97 0.0
03 02:55 Calm 10.00 Partly Cloudy SCT090 37.6 23.5 57% 29.97 0.0
03 02:35 Calm 10.00 Partly Cloudy SCT090 37.4 23.4 57% 29.98 0.0
03 02:15 Calm 10.00 Partly Cloudy SCT090 36.5 23.5 59% 29.98 0.0
03 01:55 Calm 10.00 Partly Cloudy SCT090 36.3 23.5 46.4 34.2 60% 29.99 0.0
03 01:35 Calm 10.00 Partly Cloudy SCT090 34.9 24.4 66% 29.99 0.0
03 01:15 Calm 10.00 Fair CLR 34.5 25 68% 30 0.0
03 00:55 Calm 10.00 Fair CLR 35.6 24.1 63% 30 0.0
03 00:35 Calm 10.00 Fair CLR 34.5 26.2 72% 30 0.0
03 00:15 Calm 10.00 Fair CLR 35.1 25.3 68% 30 0.0
02 23:55 Calm 10.00 Fair CLR 35.8 25 65% 30.01 0.0
02 23:35 Calm 10.00 Fair CLR 35.1 25 67% 30.01 0.0
02 23:15 Calm 10.00 Fair CLR 36 23.5 61% 30.02 0.0
02 22:55 Calm 10.00 Fair CLR 36.5 23.9 60% 30.02 0.0
02 22:35 Calm 10.00 Fair CLR 36.3 25.3 64% 30.03 0.0
02 22:15 Calm 10.00 Fair CLR 36.7 25.3 64% 30.02 0.0
02 21:55 Calm 10.00 Fair CLR 37 26.1 65% 30.02 0.0
02 21:35 Calm 10.00 Fair CLR 39.2 20.8 48% 30.02 0.0
02 21:15 Calm 10.00 Fair CLR 40.8 20.5 44% 30.01 0.0
02 20:55 Calm 10.00 Fair CLR 40.1 22.1 49% 30.01 0.0
02 20:35 Calm 10.00 Fair CLR 43.3 19.8 39% 30.01 0.0
02 20:15 W 6 10.00 Fair CLR 44.8 19 36% 42 30 0.0
02 19:55 W 8 10.00 Fair CLR 46.6 18.7 50.9 45.7 33% 43 30 0.0
02 19:35 W 6 10.00 Fair CLR 46.9 19 33% 45 30.01 0.0
02 19:15 W 8 G 18 10.00 Fair CLR 47.7 19.4 33% 44 30.01 0.0
02 18:55 W 14 G 17 10.00 Fair CLR 48.6 20.1 32% 44 30.01 0.0
02 18:15 W 9 10.00 Partly Cloudy SCT065 50 21.6 33% 47 30.01 0.0
02 17:55 W 14 G 21 10.00 Overcast OVC065 50.2 22.1 33% 30.01 0.0
02 17:35 NW 6 10.00 Overcast OVC065 49.5 22.1 34% 48 30.01 0.0
02 17:15 NW 12 G 17 10.00 Overcast OVC065 50.7 23.9 35% 30.01 0.0
02 16:55 W 7 G 16 10.00 Mostly Cloudy BKN065 48 22.1 36% 45 30.02 0.0
02 16:35 NW 3 10.00 Mostly Cloudy BKN060 BKN070 46.8 21.9 37% 30.02 0.0
02 16:15 W 6 10.00 Overcast BKN060 OVC070 48 24.6 40% 46 30.03 0.0
02 15:55 NW 8 10.00 Overcast BKN060 OVC070 47.1 24.1 40% 44 30.03 0.0
02 15:35 W 8 10.00 Overcast BKN060 OVC070 46.2 24.1 42% 43 30.04 0.0
02 15:15 W 9 10.00 Mostly Cloudy BKN060 BKN070 47.5 24.4 40% 44 30.05 0.0
02 14:55 W 5 10.00 Overcast BKN060 OVC070 45.9 23.2 41% 44 30.06 0.0
02 14:35 W 8 10.00 Overcast BKN060 OVC070 48 25.2 41% 45 30.06 0.0
02 14:15 W 8 10.00 Overcast BKN060 OVC070 46.6 22.8 39% 43 30.06 0.0
02 13:55 W 7 10.00 Overcast BKN060 OVC070 46 21.2 47.8 33.1 37% 43 30.06 0.0
02 13:35 NW 5 10.00 Overcast BKN060 OVC070 45.5 22.5 40% 44 30.07 0.0
02 13:15 NW 7 10.00 Overcast BKN060 OVC070 46.2 21.6 38% 43 30.08 0.0
02 12:55 W 12 10.00 Mostly Cloudy BKN060 BKN070 45.3 22.8 41% 40 30.08 0.0
02 12:35 W 8 10.00 Mostly Cloudy BKN050 BKN065 45.3 23.2 42% 42 30.08 0.0
02 12:15 W 7 10.00 Overcast BKN050 OVC065 43.7 22.5 43% 40 30.09 0.0
02 11:55 W 6 10.00 Mostly Cloudy BKN050 44.8 23.2 43% 42 30.09 0.0
02 11:35 NW 5 10.00 Overcast BKN048 OVC060 44.1 23.4 44% 42 30.09 0.0
02 11:15 NW 5 10.00 Mostly Cloudy BKN048 BKN050 42.4 22.8 46% 40 30.09 0.0
02 10:55 N 3 10.00 Partly Cloudy SCT041 SCT050 41.5 23 48% 30.09 0.0
02 10:35 NW 5 10.00 Mostly Cloudy SCT033 BKN041 42.3 25.7 52% 40 30.09 0.0
02 10:15 NW 5 10.00 Partly Cloudy SCT030 41.9 27.9 58% 40 30.09 0.0
02 09:55 N 6 10.00 Partly Cloudy SCT030 40.3 27.7 61% 37 30.09 0.0
02 09:35 N 5 10.00 Fair CLR 39.2 28.4 65% 36 30.09 0.0
02 09:15 Calm 10.00 Fair CLR 38.7 29.1 69% 30.09 0.0
02 08:55 N 3 10.00 Fair CLR 37.6 29.3 72% 30.09 0.0
02 08:35 Calm 10.00 Fair CLR 36 28.9 76% 30.09 0.0
02 08:15 NW 5 10.00 Fair CLR 34.7 28.6 78% 31 30.08 0.0
02 07:55 Calm 10.00 Fair CLR 32.7 28.9 32.7 25.7 86% 30.08 0.0
02 07:35 Calm 10.00 Fair CLR 31.1 27.9 88% 30.07 0.0
02 07:15 Calm 10.00 Fair CLR 28.9 26.6 91% 30.07 0.0
02 06:55 Calm 10.00 Fair CLR 27.5 25.2 91% 30.07 0.0
02 06:35 Calm 10.00 Fair CLR 27 24.8 92% 30.07 0.0
02 06:15 W 3 10.00 Fair CLR 26.6 24.3 91% 30.06 0.0
02 05:55 Calm 10.00 Fair CLR 28.8 25.7 88% 30.06 0.0
02 05:35 Calm 10.00 Fair CLR 28.6 25.3 88% 30.06 0.0
02 05:15 Calm 10.00 Fair CLR 28.9 25.5 87% 30.06 0.0
02 04:55 Calm 10.00 Fair CLR 28.4 24.6 86% 30.06 0.0
02 04:35 Calm 10.00 Fair CLR 29.5 26.1 87% 30.05 0.0
02 04:15 Calm 10.00 Fair CLR 30 26.1 85% 30.05 0.0
02 03:55 Calm 10.00 Fair CLR 30.2 25.9 84% 30.05 0.0
02 03:35 Calm 10.00 Fair CLR 30.7 25.5 81% 30.05 0.0
02 03:15 Calm 10.00 Fair CLR 30.7 25 79% 30.05 0.0
02 02:55 Calm 10.00 Fair CLR 31.3 25.3 79% 30.05 0.0
02 02:35 W 3 10.00 Fair CLR 31.6 25 76% 30.06 0.0
02 02:15 Calm 10.00 Fair CLR 31.8 25.5 78% 30.06 0.0
02 01:55 W 3 10.00 Fair CLR 30.7 25.2 41.9 30.7 80% 30.06 0.0
02 01:35 W 3 10.00 Fair CLR 31.8 25.5 78% 30.06 0.0
Date Time (edt) Wind (mph) Vis. (mi.) Weather Sky Cond. Air Dwpt Max. Min. Relative Humidity Wind Chill (°F) Heat Index (°F) altimeter (in) sea level (mb) 1 hr 3 hr 6 hr
6 hour
Temperature (ºF) Pressure Precipitation (in)